sensor_id;sensor_type;location;lat;lon;timestamp;P1;durP1;ratioP1;P2;durP2;ratioP2
17422;SDS011;8829;47.932;7.810;2023-02-11T00:00:12;25.27;;;16.43;;
17422;SDS011;8829;47.932;7.810;2023-02-11T00:02:39;24.57;;;15.83;;
17422;SDS011;8829;47.932;7.810;2023-02-11T00:05:07;23.37;;;15.60;;
17422;SDS011;8829;47.932;7.810;2023-02-11T00:07:33;22.17;;;15.50;;
17422;SDS011;8829;47.932;7.810;2023-02-11T00:10:01;22.13;;;14.53;;
17422;SDS011;8829;47.932;7.810;2023-02-11T00:12:29;22.27;;;13.83;;
17422;SDS011;8829;47.932;7.810;2023-02-11T00:14:56;22.23;;;14.40;;
17422;SDS011;8829;47.932;7.810;2023-02-11T00:17:22;23.03;;;14.57;;
17422;SDS011;8829;47.932;7.810;2023-02-11T00:19:49;23.10;;;14.40;;
17422;SDS011;8829;47.932;7.810;2023-02-11T00:22:16;18.23;;;12.70;;
17422;SDS011;8829;47.932;7.810;2023-02-11T00:24:43;22.23;;;13.57;;
17422;SDS011;8829;47.932;7.810;2023-02-11T00:27:10;20.43;;;14.00;;
17422;SDS011;8829;47.932;7.810;2023-02-11T00:29:38;20.80;;;13.00;;
17422;SDS011;8829;47.932;7.810;2023-02-11T00:32:05;19.33;;;12.60;;
17422;SDS011;8829;47.932;7.810;2023-02-11T00:34:33;18.33;;;12.77;;
17422;SDS011;8829;47.932;7.810;2023-02-11T00:37:00;18.03;;;12.90;;
17422;SDS011;8829;47.932;7.810;2023-02-11T00:39:27;19.10;;;13.00;;
17422;SDS011;8829;47.932;7.810;2023-02-11T00:41:53;20.07;;;12.47;;
17422;SDS011;8829;47.932;7.810;2023-02-11T00:44:20;18.20;;;12.23;;
17422;SDS011;8829;47.932;7.810;2023-02-11T00:46:48;19.63;;;11.43;;
17422;SDS011;8829;47.932;7.810;2023-02-11T00:49:16;22.27;;;12.50;;
17422;SDS011;8829;47.932;7.810;2023-02-11T00:51:43;16.80;;;11.50;;
17422;SDS011;8829;47.932;7.810;2023-02-11T00:54:09;20.13;;;12.47;;
17422;SDS011;8829;47.932;7.810;2023-02-11T00:56:36;14.93;;;10.80;;
17422;SDS011;8829;47.932;7.810;2023-02-11T00:59:03;20.47;;;12.90;;
17422;SDS011;8829;47.932;7.810;2023-02-11T01:01:29;14.83;;;12.00;;
17422;SDS011;8829;47.932;7.810;2023-02-11T01:03:57;16.43;;;12.23;;
17422;SDS011;8829;47.932;7.810;2023-02-11T01:06:24;17.33;;;12.03;;
17422;SDS011;8829;47.932;7.810;2023-02-11T01:08:51;19.43;;;13.47;;
17422;SDS011;8829;47.932;7.810;2023-02-11T01:11:18;19.33;;;13.43;;
17422;SDS011;8829;47.932;7.810;2023-02-11T01:13:46;24.63;;;14.07;;
17422;SDS011;8829;47.932;7.810;2023-02-11T01:16:13;18.70;;;12.40;;
17422;SDS011;8829;47.932;7.810;2023-02-11T01:18:40;19.63;;;13.47;;
17422;SDS011;8829;47.932;7.810;2023-02-11T01:21:09;21.20;;;13.77;;
17422;SDS011;8829;47.932;7.810;2023-02-11T01:23:36;21.00;;;13.20;;
17422;SDS011;8829;47.932;7.810;2023-02-11T01:26:03;18.97;;;12.90;;
17422;SDS011;8829;47.932;7.810;2023-02-11T01:28:30;22.53;;;14.03;;
17422;SDS011;8829;47.932;7.810;2023-02-11T01:30:57;20.47;;;14.37;;
17422;SDS011;8829;47.932;7.810;2023-02-11T01:33:25;24.77;;;15.30;;
17422;SDS011;8829;47.932;7.810;2023-02-11T01:35:51;21.10;;;15.50;;
17422;SDS011;8829;47.932;7.810;2023-02-11T01:38:20;25.63;;;14.80;;
17422;SDS011;8829;47.932;7.810;2023-02-11T01:40:48;22.80;;;14.77;;
17422;SDS011;8829;47.932;7.810;2023-02-11T01:43:16;25.90;;;15.60;;
17422;SDS011;8829;47.932;7.810;2023-02-11T01:45:53;23.87;;;14.93;;
17422;SDS011;8829;47.932;7.810;2023-02-11T01:48:40;25.00;;;14.87;;
17422;SDS011;8829;47.932;7.810;2023-02-11T01:51:11;26.40;;;15.63;;
17422;SDS011;8829;47.932;7.810;2023-02-11T01:53:42;22.83;;;15.30;;
17422;SDS011;8829;47.932;7.810;2023-02-11T01:56:29;24.83;;;16.00;;
17422;SDS011;8829;47.932;7.810;2023-02-11T01:59:16;22.17;;;15.30;;
17422;SDS011;8829;47.932;7.810;2023-02-11T02:01:49;22.47;;;14.73;;
17422;SDS011;8829;47.932;7.810;2023-02-11T02:04:21;21.87;;;14.73;;
17422;SDS011;8829;47.932;7.810;2023-02-11T02:06:52;23.87;;;14.03;;
17422;SDS011;8829;47.932;7.810;2023-02-11T02:09:26;23.90;;;14.43;;
17422;SDS011;8829;47.932;7.810;2023-02-11T02:11:56;24.20;;;14.37;;
17422;SDS011;8829;47.932;7.810;2023-02-11T02:14:23;24.93;;;15.60;;
17422;SDS011;8829;47.932;7.810;2023-02-11T02:16:50;22.97;;;15.40;;
17422;SDS011;8829;47.932;7.810;2023-02-11T02:19:29;25.87;;;15.87;;
17422;SDS011;8829;47.932;7.810;2023-02-11T02:22:22;23.57;;;15.70;;
17422;SDS011;8829;47.932;7.810;2023-02-11T02:25:15;28.10;;;16.57;;
17422;SDS011;8829;47.932;7.810;2023-02-11T02:27:54;26.23;;;17.70;;
17422;SDS011;8829;47.932;7.810;2023-02-11T02:30:35;29.03;;;17.47;;
17422;SDS011;8829;47.932;7.810;2023-02-11T02:33:29;22.83;;;16.00;;
17422;SDS011;8829;47.932;7.810;2023-02-11T02:36:12;24.63;;;16.40;;
17422;SDS011;8829;47.932;7.810;2023-02-11T02:38:45;25.00;;;14.20;;
17422;SDS011;8829;47.932;7.810;2023-02-11T02:41:16;28.60;;;16.80;;
17422;SDS011;8829;47.932;7.810;2023-02-11T02:43:47;22.97;;;15.30;;
17422;SDS011;8829;47.932;7.810;2023-02-11T02:46:16;22.87;;;15.57;;
17422;SDS011;8829;47.932;7.810;2023-02-11T02:48:46;31.37;;;16.53;;
17422;SDS011;8829;47.932;7.810;2023-02-11T02:51:18;24.70;;;15.73;;
17422;SDS011;8829;47.932;7.810;2023-02-11T02:54:23;20.37;;;14.80;;
17422;SDS011;8829;47.932;7.810;2023-02-11T02:57:03;24.20;;;14.93;;
17422;SDS011;8829;47.932;7.810;2023-02-11T02:59:43;23.27;;;16.03;;
17422;SDS011;8829;47.932;7.810;2023-02-11T03:02:19;21.80;;;14.83;;
17422;SDS011;8829;47.932;7.810;2023-02-11T03:04:54;22.30;;;15.00;;
17422;SDS011;8829;47.932;7.810;2023-02-11T03:07:30;21.37;;;14.07;;
17422;SDS011;8829;47.932;7.810;2023-02-11T03:10:06;24.83;;;14.83;;
17422;SDS011;8829;47.932;7.810;2023-02-11T03:12:36;24.60;;;14.30;;
17422;SDS011;8829;47.932;7.810;2023-02-11T03:15:04;22.20;;;12.83;;
17422;SDS011;8829;47.932;7.810;2023-02-11T03:17:33;21.33;;;13.87;;
17422;SDS011;8829;47.932;7.810;2023-02-11T03:20:03;19.90;;;12.57;;
17422;SDS011;8829;47.932;7.810;2023-02-11T03:22:31;18.17;;;12.30;;
17422;SDS011;8829;47.932;7.810;2023-02-11T03:25:02;19.77;;;13.57;;
17422;SDS011;8829;47.932;7.810;2023-02-11T03:27:31;18.57;;;12.27;;
17422;SDS011;8829;47.932;7.810;2023-02-11T03:30:05;17.30;;;12.20;;
17422;SDS011;8829;47.932;7.810;2023-02-11T03:32:39;24.20;;;12.13;;
17422;SDS011;8829;47.932;7.810;2023-02-11T03:35:10;18.87;;;11.83;;
17422;SDS011;8829;47.932;7.810;2023-02-11T03:37:42;19.80;;;12.97;;
17422;SDS011;8829;47.932;7.810;2023-02-11T03:40:18;18.43;;;12.87;;
17422;SDS011;8829;47.932;7.810;2023-02-11T03:42:47;22.23;;;13.27;;
17422;SDS011;8829;47.932;7.810;2023-02-11T03:45:17;22.63;;;13.57;;
17422;SDS011;8829;47.932;7.810;2023-02-11T03:47:47;17.97;;;12.87;;
17422;SDS011;8829;47.932;7.810;2023-02-11T03:50:18;22.03;;;12.27;;
17422;SDS011;8829;47.932;7.810;2023-02-11T03:52:48;17.37;;;11.73;;
17422;SDS011;8829;47.932;7.810;2023-02-11T03:55:16;19.17;;;11.67;;
17422;SDS011;8829;47.932;7.810;2023-02-11T03:57:44;17.90;;;12.43;;
17422;SDS011;8829;47.932;7.810;2023-02-11T04:00:12;19.43;;;12.70;;
17422;SDS011;8829;47.932;7.810;2023-02-11T04:02:39;18.90;;;11.97;;
17422;SDS011;8829;47.932;7.810;2023-02-11T04:05:07;19.20;;;12.20;;
17422;SDS011;8829;47.932;7.810;2023-02-11T04:07:36;19.07;;;11.93;;
17422;SDS011;8829;47.932;7.810;2023-02-11T04:10:03;21.87;;;12.10;;
17422;SDS011;8829;47.932;7.810;2023-02-11T04:12:30;20.30;;;12.20;;
17422;SDS011;8829;47.932;7.810;2023-02-11T04:14:57;18.80;;;12.37;;
17422;SDS011;8829;47.932;7.810;2023-02-11T04:17:24;17.13;;;11.47;;
17422;SDS011;8829;47.932;7.810;2023-02-11T04:19:50;16.83;;;12.07;;
17422;SDS011;8829;47.932;7.810;2023-02-11T04:22:17;18.13;;;11.77;;
17422;SDS011;8829;47.932;7.810;2023-02-11T04:24:45;16.90;;;12.13;;
17422;SDS011;8829;47.932;7.810;2023-02-11T04:27:12;18.10;;;11.30;;
17422;SDS011;8829;47.932;7.810;2023-02-11T04:29:39;17.70;;;11.80;;
17422;SDS011;8829;47.932;7.810;2023-02-11T04:32:05;15.90;;;11.20;;
17422;SDS011;8829;47.932;7.810;2023-02-11T04:34:32;16.57;;;11.63;;
17422;SDS011;8829;47.932;7.810;2023-02-11T04:36:59;17.53;;;10.87;;
17422;SDS011;8829;47.932;7.810;2023-02-11T04:39:26;17.77;;;11.93;;
17422;SDS011;8829;47.932;7.810;2023-02-11T04:41:54;22.47;;;13.50;;
17422;SDS011;8829;47.932;7.810;2023-02-11T04:44:20;17.53;;;11.50;;
17422;SDS011;8829;47.932;7.810;2023-02-11T04:46:47;17.50;;;11.80;;
17422;SDS011;8829;47.932;7.810;2023-02-11T04:49:14;17.57;;;10.83;;
17422;SDS011;8829;47.932;7.810;2023-02-11T04:51:41;13.93;;;9.73;;
17422;SDS011;8829;47.932;7.810;2023-02-11T04:54:09;15.77;;;9.30;;
17422;SDS011;8829;47.932;7.810;2023-02-11T04:56:36;15.20;;;10.03;;
17422;SDS011;8829;47.932;7.810;2023-02-11T04:59:04;24.63;;;11.50;;
17422;SDS011;8829;47.932;7.810;2023-02-11T05:01:31;21.57;;;12.77;;
17422;SDS011;8829;47.932;7.810;2023-02-11T05:03:58;22.23;;;12.17;;
17422;SDS011;8829;47.932;7.810;2023-02-11T05:06:25;16.93;;;11.20;;
17422;SDS011;8829;47.932;7.810;2023-02-11T05:08:52;15.83;;;10.67;;
17422;SDS011;8829;47.932;7.810;2023-02-11T05:11:20;19.87;;;11.70;;
17422;SDS011;8829;47.932;7.810;2023-02-11T05:13:48;22.77;;;12.37;;
17422;SDS011;8829;47.932;7.810;2023-02-11T05:16:16;27.83;;;15.80;;
17422;SDS011;8829;47.932;7.810;2023-02-11T05:18:43;22.13;;;13.30;;
17422;SDS011;8829;47.932;7.810;2023-02-11T05:21:11;24.70;;;12.87;;
17422;SDS011;8829;47.932;7.810;2023-02-11T05:23:40;23.00;;;13.83;;
17422;SDS011;8829;47.932;7.810;2023-02-11T05:26:07;33.37;;;16.13;;
17422;SDS011;8829;47.932;7.810;2023-02-11T05:28:34;30.60;;;18.10;;
17422;SDS011;8829;47.932;7.810;2023-02-11T05:31:01;32.03;;;19.10;;
17422;SDS011;8829;47.932;7.810;2023-02-11T05:33:29;33.27;;;19.03;;
17422;SDS011;8829;47.932;7.810;2023-02-11T05:35:57;31.77;;;16.20;;
17422;SDS011;8829;47.932;7.810;2023-02-11T05:38:24;24.37;;;15.77;;
17422;SDS011;8829;47.932;7.810;2023-02-11T05:40:51;27.67;;;16.30;;
17422;SDS011;8829;47.932;7.810;2023-02-11T05:43:18;29.80;;;16.87;;
17422;SDS011;8829;47.932;7.810;2023-02-11T05:45:45;25.83;;;16.30;;
17422;SDS011;8829;47.932;7.810;2023-02-11T05:48:11;27.37;;;16.20;;
17422;SDS011;8829;47.932;7.810;2023-02-11T05:50:39;26.23;;;15.80;;
17422;SDS011;8829;47.932;7.810;2023-02-11T05:53:06;26.07;;;15.67;;
17422;SDS011;8829;47.932;7.810;2023-02-11T05:55:33;26.43;;;16.57;;
17422;SDS011;8829;47.932;7.810;2023-02-11T05:58:00;25.93;;;16.03;;
17422;SDS011;8829;47.932;7.810;2023-02-11T06:00:26;25.83;;;15.93;;
17422;SDS011;8829;47.932;7.810;2023-02-11T06:02:53;28.90;;;15.63;;
17422;SDS011;8829;47.932;7.810;2023-02-11T06:05:20;23.00;;;15.10;;
17422;SDS011;8829;47.932;7.810;2023-02-11T06:07:48;26.00;;;15.77;;
17422;SDS011;8829;47.932;7.810;2023-02-11T06:10:15;24.73;;;15.17;;
17422;SDS011;8829;47.932;7.810;2023-02-11T06:12:41;23.30;;;14.80;;
17422;SDS011;8829;47.932;7.810;2023-02-11T06:15:08;21.03;;;13.03;;
17422;SDS011;8829;47.932;7.810;2023-02-11T06:17:35;25.50;;;15.07;;
17422;SDS011;8829;47.932;7.810;2023-02-11T06:20:03;23.73;;;12.57;;
17422;SDS011;8829;47.932;7.810;2023-02-11T06:22:31;20.43;;;12.80;;
17422;SDS011;8829;47.932;7.810;2023-02-11T06:24:59;17.10;;;10.77;;
17422;SDS011;8829;47.932;7.810;2023-02-11T06:27:26;18.40;;;10.60;;
17422;SDS011;8829;47.932;7.810;2023-02-11T06:29:53;14.97;;;10.47;;
17422;SDS011;8829;47.932;7.810;2023-02-11T06:32:19;15.00;;;10.33;;
17422;SDS011;8829;47.932;7.810;2023-02-11T06:34:46;13.50;;;9.43;;
17422;SDS011;8829;47.932;7.810;2023-02-11T06:37:13;12.87;;;9.37;;
17422;SDS011;8829;47.932;7.810;2023-02-11T06:39:39;14.27;;;9.90;;
17422;SDS011;8829;47.932;7.810;2023-02-11T06:42:07;17.87;;;10.47;;
17422;SDS011;8829;47.932;7.810;2023-02-11T06:44:34;13.83;;;9.30;;
17422;SDS011;8829;47.932;7.810;2023-02-11T06:47:01;13.87;;;9.80;;
17422;SDS011;8829;47.932;7.810;2023-02-11T06:49:28;17.30;;;11.97;;
17422;SDS011;8829;47.932;7.810;2023-02-11T06:51:55;17.77;;;11.30;;
17422;SDS011;8829;47.932;7.810;2023-02-11T06:54:21;13.07;;;10.17;;
17422;SDS011;8829;47.932;7.810;2023-02-11T06:56:48;19.40;;;12.07;;
17422;SDS011;8829;47.932;7.810;2023-02-11T06:59:17;19.47;;;10.90;;
17422;SDS011;8829;47.932;7.810;2023-02-11T07:01:45;14.57;;;9.93;;
17422;SDS011;8829;47.932;7.810;2023-02-11T07:04:12;18.70;;;11.37;;
17422;SDS011;8829;47.932;7.810;2023-02-11T07:06:39;16.03;;;11.10;;
17422;SDS011;8829;47.932;7.810;2023-02-11T07:09:06;15.30;;;9.80;;
17422;SDS011;8829;47.932;7.810;2023-02-11T07:11:33;16.57;;;10.80;;
17422;SDS011;8829;47.932;7.810;2023-02-11T07:14:00;19.37;;;11.07;;
17422;SDS011;8829;47.932;7.810;2023-02-11T07:16:30;15.70;;;9.57;;
17422;SDS011;8829;47.932;7.810;2023-02-11T07:18:57;14.00;;;8.57;;
17422;SDS011;8829;47.932;7.810;2023-02-11T07:21:23;13.97;;;8.53;;
17422;SDS011;8829;47.932;7.810;2023-02-11T07:23:50;13.60;;;8.30;;
17422;SDS011;8829;47.932;7.810;2023-02-11T07:26:18;13.80;;;7.83;;
17422;SDS011;8829;47.932;7.810;2023-02-11T07:28:47;12.97;;;8.90;;
17422;SDS011;8829;47.932;7.810;2023-02-11T07:31:15;11.97;;;8.07;;
17422;SDS011;8829;47.932;7.810;2023-02-11T07:33:45;13.87;;;8.50;;
17422;SDS011;8829;47.932;7.810;2023-02-11T07:36:12;12.93;;;8.90;;
17422;SDS011;8829;47.932;7.810;2023-02-11T07:38:40;14.13;;;8.30;;
17422;SDS011;8829;47.932;7.810;2023-02-11T07:41:08;13.17;;;7.70;;
17422;SDS011;8829;47.932;7.810;2023-02-11T07:43:36;12.63;;;7.90;;
17422;SDS011;8829;47.932;7.810;2023-02-11T07:46:04;12.47;;;8.30;;
17422;SDS011;8829;47.932;7.810;2023-02-11T07:48:31;11.43;;;7.90;;
17422;SDS011;8829;47.932;7.810;2023-02-11T07:51:05;13.93;;;8.53;;
17422;SDS011;8829;47.932;7.810;2023-02-11T07:53:33;11.63;;;7.83;;
17422;SDS011;8829;47.932;7.810;2023-02-11T07:56:01;10.73;;;7.30;;
17422;SDS011;8829;47.932;7.810;2023-02-11T07:58:28;13.47;;;8.57;;
17422;SDS011;8829;47.932;7.810;2023-02-11T08:00:54;10.70;;;7.73;;
17422;SDS011;8829;47.932;7.810;2023-02-11T08:03:26;15.27;;;9.70;;
17422;SDS011;8829;47.932;7.810;2023-02-11T08:05:53;20.60;;;11.33;;
17422;SDS011;8829;47.932;7.810;2023-02-11T08:08:21;19.00;;;12.60;;
17422;SDS011;8829;47.932;7.810;2023-02-11T08:10:48;18.40;;;11.67;;
17422;SDS011;8829;47.932;7.810;2023-02-11T08:13:14;19.90;;;13.43;;
17422;SDS011;8829;47.932;7.810;2023-02-11T08:15:41;17.87;;;12.97;;
17422;SDS011;8829;47.932;7.810;2023-02-11T08:18:08;17.77;;;12.33;;
17422;SDS011;8829;47.932;7.810;2023-02-11T08:20:34;20.63;;;12.63;;
17422;SDS011;8829;47.932;7.810;2023-02-11T08:23:01;19.47;;;12.27;;
17422;SDS011;8829;47.932;7.810;2023-02-11T08:25:29;19.50;;;12.67;;
17422;SDS011;8829;47.932;7.810;2023-02-11T08:27:56;16.17;;;11.70;;
17422;SDS011;8829;47.932;7.810;2023-02-11T08:30:23;15.53;;;11.83;;
17422;SDS011;8829;47.932;7.810;2023-02-11T08:32:50;20.77;;;12.90;;
17422;SDS011;8829;47.932;7.810;2023-02-11T08:35:17;15.83;;;11.13;;
17422;SDS011;8829;47.932;7.810;2023-02-11T08:37:44;27.40;;;16.70;;
17422;SDS011;8829;47.932;7.810;2023-02-11T08:40:10;45.20;;;25.17;;
17422;SDS011;8829;47.932;7.810;2023-02-11T08:42:38;30.43;;;18.90;;
17422;SDS011;8829;47.932;7.810;2023-02-11T08:45:05;24.93;;;15.93;;
17422;SDS011;8829;47.932;7.810;2023-02-11T08:47:34;23.50;;;13.73;;
17422;SDS011;8829;47.932;7.810;2023-02-11T08:50:01;23.90;;;13.83;;
17422;SDS011;8829;47.932;7.810;2023-02-11T08:52:27;22.83;;;14.27;;
17422;SDS011;8829;47.932;7.810;2023-02-11T08:54:54;57.17;;;27.30;;
17422;SDS011;8829;47.932;7.810;2023-02-11T08:57:21;53.27;;;25.97;;
17422;SDS011;8829;47.932;7.810;2023-02-11T08:59:49;34.67;;;19.50;;
17422;SDS011;8829;47.932;7.810;2023-02-11T09:02:16;24.73;;;15.17;;
17422;SDS011;8829;47.932;7.810;2023-02-11T09:04:42;33.67;;;20.53;;
17422;SDS011;8829;47.932;7.810;2023-02-11T09:07:09;26.87;;;17.53;;
17422;SDS011;8829;47.932;7.810;2023-02-11T09:09:36;22.33;;;15.47;;
17422;SDS011;8829;47.932;7.810;2023-02-11T09:12:03;23.30;;;15.87;;
17422;SDS011;8829;47.932;7.810;2023-02-11T09:14:30;24.97;;;15.07;;
17422;SDS011;8829;47.932;7.810;2023-02-11T09:16:59;26.73;;;16.07;;
17422;SDS011;8829;47.932;7.810;2023-02-11T09:19:25;25.37;;;15.37;;
17422;SDS011;8829;47.932;7.810;2023-02-11T09:21:52;27.57;;;17.07;;
17422;SDS011;8829;47.932;7.810;2023-02-11T09:24:19;26.83;;;16.77;;
17422;SDS011;8829;47.932;7.810;2023-02-11T09:26:46;26.43;;;15.87;;
17422;SDS011;8829;47.932;7.810;2023-02-11T09:29:13;28.03;;;16.13;;
17422;SDS011;8829;47.932;7.810;2023-02-11T09:31:40;27.90;;;16.33;;
17422;SDS011;8829;47.932;7.810;2023-02-11T09:34:08;24.97;;;16.33;;
17422;SDS011;8829;47.932;7.810;2023-02-11T09:36:37;26.17;;;16.20;;
17422;SDS011;8829;47.932;7.810;2023-02-11T09:39:06;26.47;;;15.83;;
17422;SDS011;8829;47.932;7.810;2023-02-11T09:41:41;20.63;;;14.70;;
17422;SDS011;8829;47.932;7.810;2023-02-11T09:44:33;23.33;;;14.63;;
17422;SDS011;8829;47.932;7.810;2023-02-11T09:47:02;22.40;;;15.90;;
17422;SDS011;8829;47.932;7.810;2023-02-11T09:49:33;21.87;;;16.00;;
17422;SDS011;8829;47.932;7.810;2023-02-11T09:52:05;28.10;;;16.53;;
17422;SDS011;8829;47.932;7.810;2023-02-11T09:54:44;25.97;;;16.43;;
17422;SDS011;8829;47.932;7.810;2023-02-11T09:57:18;25.80;;;16.63;;
17422;SDS011;8829;47.932;7.810;2023-02-11T09:59:45;22.27;;;16.13;;
17422;SDS011;8829;47.932;7.810;2023-02-11T10:02:15;28.90;;;15.70;;
17422;SDS011;8829;47.932;7.810;2023-02-11T10:04:54;25.40;;;17.07;;
17422;SDS011;8829;47.932;7.810;2023-02-11T10:07:35;23.20;;;14.93;;
17422;SDS011;8829;47.932;7.810;2023-02-11T10:10:10;28.93;;;18.03;;
17422;SDS011;8829;47.932;7.810;2023-02-11T10:12:47;24.10;;;15.20;;
17422;SDS011;8829;47.932;7.810;2023-02-11T10:15:27;26.00;;;16.93;;
17422;SDS011;8829;47.932;7.810;2023-02-11T10:18:06;23.10;;;15.20;;
17422;SDS011;8829;47.932;7.810;2023-02-11T10:20:46;24.30;;;14.63;;
17422;SDS011;8829;47.932;7.810;2023-02-11T10:23:20;25.77;;;14.73;;
17422;SDS011;8829;47.932;7.810;2023-02-11T10:25:50;24.77;;;14.73;;
17422;SDS011;8829;47.932;7.810;2023-02-11T10:28:21;22.97;;;14.67;;
17422;SDS011;8829;47.932;7.810;2023-02-11T10:30:51;28.10;;;14.37;;
17422;SDS011;8829;47.932;7.810;2023-02-11T10:33:24;22.83;;;13.87;;
17422;SDS011;8829;47.932;7.810;2023-02-11T10:35:56;25.80;;;15.13;;
17422;SDS011;8829;47.932;7.810;2023-02-11T10:38:23;21.30;;;13.67;;
17422;SDS011;8829;47.932;7.810;2023-02-11T10:40:50;20.77;;;14.13;;
17422;SDS011;8829;47.932;7.810;2023-02-11T10:43:18;21.43;;;12.63;;
17422;SDS011;8829;47.932;7.810;2023-02-11T10:45:47;19.93;;;13.63;;
17422;SDS011;8829;47.932;7.810;2023-02-11T10:48:35;19.70;;;13.63;;
17422;SDS011;8829;47.932;7.810;2023-02-11T10:51:12;23.63;;;14.03;;
17422;SDS011;8829;47.932;7.810;2023-02-11T10:53:42;20.07;;;12.60;;
17422;SDS011;8829;47.932;7.810;2023-02-11T10:56:09;22.67;;;14.77;;
17422;SDS011;8829;47.932;7.810;2023-02-11T10:58:40;20.67;;;13.90;;
17422;SDS011;8829;47.932;7.810;2023-02-11T11:01:10;26.67;;;14.87;;
17422;SDS011;8829;47.932;7.810;2023-02-11T11:03:38;20.67;;;14.10;;
17422;SDS011;8829;47.932;7.810;2023-02-11T11:06:13;22.83;;;14.50;;
17422;SDS011;8829;47.932;7.810;2023-02-11T11:08:41;22.07;;;15.37;;
17422;SDS011;8829;47.932;7.810;2023-02-11T11:11:10;24.93;;;15.17;;
17422;SDS011;8829;47.932;7.810;2023-02-11T11:13:39;26.97;;;15.23;;
17422;SDS011;8829;47.932;7.810;2023-02-11T11:16:20;24.17;;;15.30;;
17422;SDS011;8829;47.932;7.810;2023-02-11T11:18:48;24.67;;;16.50;;
17422;SDS011;8829;47.932;7.810;2023-02-11T11:21:19;21.37;;;15.20;;
17422;SDS011;8829;47.932;7.810;2023-02-11T11:23:49;23.20;;;15.40;;
17422;SDS011;8829;47.932;7.810;2023-02-11T11:26:18;23.80;;;15.87;;
17422;SDS011;8829;47.932;7.810;2023-02-11T11:28:50;22.73;;;15.03;;
17422;SDS011;8829;47.932;7.810;2023-02-11T11:31:21;24.20;;;14.80;;
17422;SDS011;8829;47.932;7.810;2023-02-11T11:33:49;26.70;;;16.30;;
17422;SDS011;8829;47.932;7.810;2023-02-11T11:36:21;26.40;;;16.47;;
17422;SDS011;8829;47.932;7.810;2023-02-11T11:38:56;25.27;;;15.67;;
17422;SDS011;8829;47.932;7.810;2023-02-11T11:41:26;24.20;;;16.13;;
17422;SDS011;8829;47.932;7.810;2023-02-11T11:43:56;24.63;;;16.43;;
17422;SDS011;8829;47.932;7.810;2023-02-11T11:46:26;24.80;;;16.57;;
17422;SDS011;8829;47.932;7.810;2023-02-11T11:48:57;27.07;;;17.73;;
17422;SDS011;8829;47.932;7.810;2023-02-11T11:51:36;26.50;;;16.93;;
17422;SDS011;8829;47.932;7.810;2023-02-11T11:54:07;26.37;;;17.63;;
17422;SDS011;8829;47.932;7.810;2023-02-11T11:56:38;25.53;;;17.70;;
17422;SDS011;8829;47.932;7.810;2023-02-11T11:59:12;24.43;;;17.83;;
17422;SDS011;8829;47.932;7.810;2023-02-11T12:01:42;31.03;;;18.30;;
17422;SDS011;8829;47.932;7.810;2023-02-11T12:04:18;24.97;;;17.23;;
17422;SDS011;8829;47.932;7.810;2023-02-11T12:07:05;26.63;;;17.70;;
17422;SDS011;8829;47.932;7.810;2023-02-11T12:09:47;32.33;;;19.83;;
17422;SDS011;8829;47.932;7.810;2023-02-11T12:12:24;29.17;;;19.77;;
17422;SDS011;8829;47.932;7.810;2023-02-11T12:15:02;30.47;;;20.43;;
17422;SDS011;8829;47.932;7.810;2023-02-11T12:17:45;24.83;;;18.53;;
17422;SDS011;8829;47.932;7.810;2023-02-11T12:20:24;26.93;;;19.17;;
17422;SDS011;8829;47.932;7.810;2023-02-11T12:23:02;27.67;;;18.60;;
17422;SDS011;8829;47.932;7.810;2023-02-11T12:25:45;28.17;;;19.37;;
17422;SDS011;8829;47.932;7.810;2023-02-11T12:28:23;29.50;;;18.87;;
17422;SDS011;8829;47.932;7.810;2023-02-11T12:31:02;29.23;;;19.77;;
17422;SDS011;8829;47.932;7.810;2023-02-11T12:33:54;23.17;;;18.10;;
17422;SDS011;8829;47.932;7.810;2023-02-11T12:37:00;27.40;;;19.70;;
17422;SDS011;8829;47.932;7.810;2023-02-11T12:39:36;27.57;;;20.67;;
17422;SDS011;8829;47.932;7.810;2023-02-11T12:42:22;33.63;;;19.47;;
17422;SDS011;8829;47.932;7.810;2023-02-11T12:45:45;35.63;;;20.47;;
17422;SDS011;8829;47.932;7.810;2023-02-11T12:48:38;28.77;;;19.27;;
17422;SDS011;8829;47.932;7.810;2023-02-11T12:51:21;26.33;;;19.70;;
17422;SDS011;8829;47.932;7.810;2023-02-11T12:54:10;29.00;;;20.03;;
17422;SDS011;8829;47.932;7.810;2023-02-11T12:56:51;27.77;;;19.50;;
17422;SDS011;8829;47.932;7.810;2023-02-11T12:59:25;26.73;;;19.77;;
17422;SDS011;8829;47.932;7.810;2023-02-11T13:02:05;28.37;;;18.33;;
17422;SDS011;8829;47.932;7.810;2023-02-11T13:04:44;28.47;;;19.60;;
17422;SDS011;8829;47.932;7.810;2023-02-11T13:07:16;26.63;;;18.77;;
17422;SDS011;8829;47.932;7.810;2023-02-11T13:09:47;27.27;;;18.57;;
17422;SDS011;8829;47.932;7.810;2023-02-11T13:12:21;25.17;;;17.50;;
17422;SDS011;8829;47.932;7.810;2023-02-11T13:15:11;28.73;;;18.47;;
17422;SDS011;8829;47.932;7.810;2023-02-11T13:17:39;25.17;;;16.83;;
17422;SDS011;8829;47.932;7.810;2023-02-11T13:20:16;27.73;;;17.73;;
17422;SDS011;8829;47.932;7.810;2023-02-11T13:22:52;28.90;;;19.17;;
17422;SDS011;8829;47.932;7.810;2023-02-11T13:25:26;23.20;;;17.70;;
17422;SDS011;8829;47.932;7.810;2023-02-11T13:28:02;25.43;;;17.83;;
17422;SDS011;8829;47.932;7.810;2023-02-11T13:30:39;25.90;;;16.93;;
17422;SDS011;8829;47.932;7.810;2023-02-11T13:33:19;26.87;;;19.00;;
17422;SDS011;8829;47.932;7.810;2023-02-11T13:36:11;27.57;;;18.47;;
17422;SDS011;8829;47.932;7.810;2023-02-11T13:39:00;28.27;;;18.00;;
17422;SDS011;8829;47.932;7.810;2023-02-11T13:41:30;23.20;;;16.47;;
17422;SDS011;8829;47.932;7.810;2023-02-11T13:44:02;25.43;;;17.97;;
17422;SDS011;8829;47.932;7.810;2023-02-11T13:46:46;29.27;;;18.47;;
17422;SDS011;8829;47.932;7.810;2023-02-11T13:49:17;26.73;;;16.73;;
17422;SDS011;8829;47.932;7.810;2023-02-11T13:51:46;24.07;;;15.73;;
17422;SDS011;8829;47.932;7.810;2023-02-11T13:54:18;25.80;;;16.57;;
17422;SDS011;8829;47.932;7.810;2023-02-11T13:57:14;24.43;;;16.27;;
17422;SDS011;8829;47.932;7.810;2023-02-11T13:59:52;26.73;;;17.17;;
17422;SDS011;8829;47.932;7.810;2023-02-11T14:02:21;24.53;;;17.37;;
17422;SDS011;8829;47.932;7.810;2023-02-11T14:08:15;23.50;;;17.00;;
17422;SDS011;8829;47.932;7.810;2023-02-11T14:11:04;23.93;;;16.77;;
17422;SDS011;8829;47.932;7.810;2023-02-11T14:13:37;27.27;;;17.77;;
17422;SDS011;8829;47.932;7.810;2023-02-11T14:16:29;25.93;;;16.23;;
17422;SDS011;8829;47.932;7.810;2023-02-11T14:18:57;28.03;;;17.27;;
17422;SDS011;8829;47.932;7.810;2023-02-11T14:27:14;27.40;;;16.97;;
17422;SDS011;8829;47.932;7.810;2023-02-11T14:32:43;29.67;;;17.73;;
17422;SDS011;8829;47.932;7.810;2023-02-11T14:35:22;28.70;;;18.77;;
17422;SDS011;8829;47.932;7.810;2023-02-11T14:38:00;26.43;;;18.37;;
17422;SDS011;8829;47.932;7.810;2023-02-11T14:40:33;29.40;;;17.87;;
17422;SDS011;8829;47.932;7.810;2023-02-11T14:43:08;26.37;;;18.00;;
17422;SDS011;8829;47.932;7.810;2023-02-11T14:45:41;25.33;;;17.37;;
17422;SDS011;8829;47.932;7.810;2023-02-11T14:48:15;26.90;;;17.47;;
17422;SDS011;8829;47.932;7.810;2023-02-11T14:50:43;29.23;;;17.63;;
17422;SDS011;8829;47.932;7.810;2023-02-11T14:53:14;24.57;;;17.53;;
17422;SDS011;8829;47.932;7.810;2023-02-11T14:55:44;27.00;;;17.23;;
17422;SDS011;8829;47.932;7.810;2023-02-11T14:58:17;28.90;;;17.10;;
17422;SDS011;8829;47.932;7.810;2023-02-11T15:00:48;24.73;;;15.67;;
17422;SDS011;8829;47.932;7.810;2023-02-11T15:03:29;20.00;;;14.00;;
17422;SDS011;8829;47.932;7.810;2023-02-11T15:06:01;21.47;;;13.83;;
17422;SDS011;8829;47.932;7.810;2023-02-11T15:08:31;19.73;;;12.87;;
17422;SDS011;8829;47.932;7.810;2023-02-11T15:11:00;18.70;;;12.40;;